Time;durP1;ratioP1;P1;durP2;ratioP2;P2;SDS_P1;SDS_P2;PMS_P1;PMS_P2;Temp;Humidity;BMP_temperature;BMP_pressure;BME280_temperature;BME280_humidity;BME280_pressure;Samples;Min_cycle;Max_cycle;Signal;HPM_P1;HPM_P2
2021/05/19 00:02:24;;;;;;;7.38;4.05;;;;;;;;;;5093923;28;20095;-68
2021/05/19 00:04:50;;;;;;;11.52;4.63;;;;;;;;;;5093853;28;20028;-68
2021/05/19 00:07:17;;;;;;;9.20;3.97;;;;;;;;;;5093681;28;20448;-69
2021/05/19 00:09:43;;;;;;;13.18;4.43;;;;;;;;;;5093544;28;20095;-69
2021/05/19 00:12:09;;;;;;;14.30;3.78;;;;;;;;;;5091944;28;20044;-70
2021/05/19 00:14:36;;;;;;;13.88;5.63;;;;;;;;;;5092434;28;20224;-69
2021/05/19 00:17:02;;;;;;;10.13;4.60;;;;;;;;;;5092376;28;20474;-71
2021/05/19 00:19:28;;;;;;;5.20;3.90;;;;;;;;;;5092105;28;20016;-71
2021/05/19 00:21:54;;;;;;;7.35;3.97;;;;;;;;;;5093575;28;20016;-68
2021/05/19 00:24:20;;;;;;;11.38;4.47;;;;;;;;;;5093545;28;20047;-69
2021/05/19 00:26:47;;;;;;;7.00;3.90;;;;;;;;;;5092145;28;20358;-67
2021/05/19 00:29:13;;;;;;;6.45;3.15;;;;;;;;;;5093437;28;20020;-69
2021/05/19 00:31:41;;;;;;;4.55;3.33;;;;;;;;;;5093490;28;20039;-69
2021/05/19 00:34:08;;;;;;;5.85;3.33;;;;;;;;;;5093443;28;20016;-67
2021/05/19 00:36:35;;;;;;;6.50;3.40;;;;;;;;;;5093436;28;20028;-68
2021/05/19 00:39:01;;;;;;;6.45;3.33;;;;;;;;;;5093368;28;20012;-68
2021/05/19 00:41:27;;;;;;;4.95;2.80;;;;;;;;;;5093329;28;20104;-68
2021/05/19 00:44:02;;;;;;;6.63;3.47;;;;;;;;;;5093309;28;20048;-69
2021/05/19 00:46:28;;;;;;;4.65;3.05;;;;;;;;;;5091913;28;20028;-68
2021/05/19 00:48:54;;;;;;;5.40;2.85;;;;;;;;;;5093497;28;20024;-68
2021/05/19 00:51:20;;;;;;;4.35;2.88;;;;;;;;;;5091862;28;20045;-68
2021/05/19 00:53:46;;;;;;;6.65;3.17;;;;;;;;;;5093249;28;20058;-71
2021/05/19 00:56:12;;;;;;;4.32;3.00;;;;;;;;;;5091897;28;20023;-69
2021/05/19 00:58:39;;;;;;;5.57;2.88;;;;;;;;;;5093424;28;20016;-70
2021/05/19 01:01:06;;;;;;;5.20;2.40;;;;;;;;;;5093158;28;20051;-69
2021/05/19 01:03:32;;;;;;;5.50;2.50;;;;;;;;;;5093086;28;20016;-69
2021/05/19 01:06:05;;;;;;;4.43;2.70;;;;;;;;;;5093392;28;20031;-70
2021/05/19 01:11:16;;;;;;;5.88;2.65;;;;;;;;;;5092844;28;20384;-67
2021/05/19 01:13:44;;;;;;;5.45;3.13;;;;;;;;;;5093130;28;20068;-68
2021/05/19 01:16:10;;;;;;;4.07;2.38;;;;;;;;;;5091715;28;20012;-68
2021/05/19 01:18:40;;;;;;;4.85;2.47;;;;;;;;;;5092703;28;20091;-70
2021/05/19 01:21:06;;;;;;;6.32;2.78;;;;;;;;;;5092960;28;20012;-68
2021/05/19 01:23:32;;;;;;;7.53;2.78;;;;;;;;;;5094635;28;20504;-68
2021/05/19 01:26:03;;;;;;;5.30;2.30;;;;;;;;;;5096966;28;20517;-69
2021/05/19 01:28:30;;;;;;;7.87;2.63;;;;;;;;;;5096892;28;20020;-70
2021/05/19 01:30:56;;;;;;;6.13;2.35;;;;;;;;;;5096813;28;20240;-70
2021/05/19 01:33:22;;;;;;;3.08;2.13;;;;;;;;;;5096821;28;20020;-67
2021/05/19 01:35:48;;;;;;;3.88;3.20;;;;;;;;;;5097048;28;20095;-69
2021/05/19 01:38:15;;;;;;;3.83;3.17;;;;;;;;;;5096947;28;20042;-68
2021/05/19 01:40:41;;;;;;;5.60;2.60;;;;;;;;;;5096642;28;20516;-68
2021/05/19 01:43:08;;;;;;;3.38;2.60;;;;;;;;;;5096568;28;20053;-69
2021/05/19 01:45:35;;;;;;;5.78;2.67;;;;;;;;;;5096555;28;20419;-67
2021/05/19 01:48:01;;;;;;;7.43;2.90;;;;;;;;;;5096495;28;20460;-68
2021/05/19 01:50:29;;;;;;;4.68;3.03;;;;;;;;;;5096442;28;20042;-67
2021/05/19 01:52:56;;;;;;;4.00;2.65;;;;;;;;;;5096681;28;20329;-70
2021/05/19 01:55:23;;;;;;;3.08;2.38;;;;;;;;;;5096398;28;20020;-68
2021/05/19 01:57:50;;;;;;;4.57;2.47;;;15.00;99.90;;;;;;5096348;28;20142;-67
2021/05/19 02:00:19;;;;;;;4.20;2.33;;;15.10;99.90;;;;;;5096292;28;20043;-69
2021/05/19 02:02:45;;;;;;;3.90;2.20;;;15.00;99.90;;;;;;5096350;28;20458;-68
2021/05/19 02:05:13;;;;;;;5.07;2.70;;;15.10;99.90;;;;;;5094929;28;20237;-68
2021/05/19 02:07:39;;;;;;;3.22;1.95;;;15.10;99.90;;;;;;5094820;28;20104;-68
2021/05/19 02:10:08;;;;;;;3.75;2.00;;;15.10;99.90;;;;;;5094768;28;20031;-69
2021/05/19 02:12:34;;;;;;;3.08;2.55;;;15.10;99.90;;;;;;5095974;28;20050;-67
2021/05/19 02:15:00;;;;;;;3.05;2.20;;;15.10;99.90;;;;;;5096048;28;20020;-68
2021/05/19 02:17:29;;;;;;;3.72;2.40;;;15.10;99.90;;;;;;5095703;28;20031;-67
2021/05/19 02:19:55;;;;;;;4.50;2.30;;;15.00;99.90;;;;;;5095904;28;20020;-68
2021/05/19 02:22:22;;;;;;;2.55;2.10;;;15.00;99.90;;;;;;5095858;28;20020;-68
2021/05/19 02:24:48;;;;;;;2.75;2.10;;;15.00;99.90;;;;;;5095825;28;20031;-68
2021/05/19 02:27:14;;;;;;;4.38;1.95;;;15.00;99.90;;;;;;5095803;28;20410;-67
2021/05/19 02:29:40;;;;;;;2.45;1.77;;;14.90;99.90;;;;;;5094410;28;20016;-67
2021/05/19 02:32:07;;;;;;;3.08;2.13;;;14.90;99.90;;;;;;5095694;28;20024;-69
2021/05/19 02:34:33;;;;;;;5.32;2.75;;;14.90;99.90;;;;;;5094272;28;20465;-69
2021/05/19 02:36:59;;;;;;;3.50;2.28;;;14.90;99.90;;;;;;5095613;28;20028;-69
2021/05/19 02:39:25;;;;;;;4.40;2.15;;;14.90;99.90;;;;;;5095811;28;20046;-70
2021/05/19 02:41:50;;;;;;;2.30;2.10;;;14.80;99.90;;;;;;5095487;28;20065;-68
2021/05/19 02:44:16;;;;;;;2.13;1.90;;;14.80;99.90;;;;;;5095433;28;20441;-69
2021/05/19 02:46:42;;;;;;;1.85;1.75;;;14.80;99.90;;;;;;5094099;28;20032;-70
2021/05/19 02:49:08;;;;;;;3.08;2.10;;;14.80;99.90;;;;;;5095612;28;20027;-68
2021/05/19 02:51:36;;;;;;;2.67;1.80;;;14.80;99.90;;;;;;5095325;28;20452;-68
2021/05/19 02:54:04;;;;;;;20.20;2.65;;;14.80;99.90;;;;;;5094242;28;20407;-68
2021/05/19 02:56:30;;;;;;;2.78;1.80;;;14.80;99.90;;;;;;5095248;28;20046;-69
2021/05/19 02:58:56;;;;;;;2.65;1.92;;;14.80;99.90;;;;;;5093820;28;20099;-72
2021/05/19 03:01:22;;;;;;;4.20;1.90;;;14.70;99.90;;;;;;5093762;28;20024;-68
2021/05/19 03:03:48;;;;;;;4.47;1.90;;;14.70;99.90;;;;;;5093829;28;20066;-68
2021/05/19 03:06:14;;;;;;;2.28;1.70;;;14.70;99.90;;;;;;5094886;28;20024;-72
2021/05/19 03:08:40;;;;;;;4.88;1.45;;;14.70;99.90;;;;;;5094973;28;20020;-68
2021/05/19 03:11:07;;;;;;;5.38;1.80;;;14.70;99.90;;;;;;5094939;28;20103;-68
2021/05/19 03:13:33;;;;;;;4.13;2.10;;;14.70;99.90;;;;;;5094957;28;20044;-70
2021/05/19 03:15:59;;;;;;;4.45;2.05;;;14.70;99.90;;;;;;5094853;28;20027;-70
2021/05/19 03:18:25;;;;;;;1.73;1.60;;;14.70;99.90;;;;;;5094760;28;20028;-70
2021/05/19 03:20:52;;;;;;;8.48;2.13;;;14.70;99.90;;;;;;5093468;28;20028;-68
2021/05/19 03:23:18;;;;;;;8.75;2.30;;;14.60;99.90;;;;;;5094712;28;20364;-70
2021/05/19 03:25:44;;;;;;;4.30;2.88;;;14.60;99.90;;;;;;5094917;28;20104;-68
2021/05/19 03:28:10;;;;;;;3.78;2.42;;;14.50;99.90;;;;;;5094580;28;20031;-69
2021/05/19 03:30:36;;;;;;;10.85;3.15;;;14.40;99.90;;;;;;5093256;28;20020;-67
2021/05/19 03:33:03;;;;;;;7.13;4.05;;;14.40;99.90;;;;;;5094193;28;20028;-71
2021/05/19 03:35:29;;;;;;;6.00;4.05;;;14.40;99.90;;;;;;5094738;28;20034;-69
2021/05/19 03:37:56;;;;;;;4.50;3.92;;;14.30;99.90;;;;;;5094466;28;20031;-69
2021/05/19 03:40:22;;;;;;;6.70;4.50;;;14.30;99.90;;;;;;5094340;28;20031;-67
2021/05/19 03:42:48;;;;;;;8.07;3.92;;;14.20;99.90;;;;;;5093031;28;20032;-68
2021/05/19 03:45:19;;;;;;;10.13;3.60;;;14.20;99.90;;;;;;5093875;28;20046;-71
2021/05/19 03:47:51;;;;;;;6.85;3.60;;;14.30;99.90;;;;;;5094249;28;20024;-70
2021/05/19 03:50:18;;;;;;;12.95;3.83;;;14.30;99.90;;;;;;5094199;28;20031;-70
2021/05/19 03:52:44;;;;;;;11.80;4.30;;;14.40;99.90;;;;;;5094147;28;20065;-71
2021/05/19 03:55:12;;;;;;;7.30;3.33;;;14.40;99.90;;;;;;5093786;28;20024;-69
2021/05/19 03:57:38;;;;;;;6.60;4.07;;;14.40;99.90;;;;;;5093715;28;20071;-71
2021/05/19 04:00:08;;;;;;;10.25;4.15;;;14.40;99.90;;;;;;5094018;28;20063;-69
2021/05/19 04:02:34;;;;;;;5.93;4.22;;;14.40;99.90;;;;;;5093769;28;20450;-69
2021/05/19 04:05:00;;;;;;;6.47;4.43;;;14.40;99.90;;;;;;5092396;28;20382;-69
2021/05/19 04:07:26;;;;;;;4.72;3.58;;;14.40;99.90;;;;;;5093780;28;20039;-71
2021/05/19 04:09:52;;;;;;;7.45;4.20;;;14.40;99.90;;;;;;5093749;28;20046;-71
2021/05/19 04:12:18;;;;;;;6.70;4.50;;;14.40;99.90;;;;;;5093478;28;20036;-71
2021/05/19 04:14:44;;;;;;;8.60;4.47;;;14.40;99.90;;;;;;5093752;28;20100;-69
2021/05/19 04:17:09;;;;;;;11.38;4.55;;;14.50;99.90;;;;;;5093775;28;20056;-69
2021/05/19 04:19:35;;;;;;;5.75;4.25;;;14.50;99.90;;;;;;5093428;28;20161;-69
2021/05/19 04:22:01;;;;;;;6.85;3.47;;;14.50;99.90;;;;;;5093664;28;20043;-69
2021/05/19 04:24:27;;;;;;;12.27;4.30;;;14.60;99.90;;;;;;5093617;28;20460;-71
2021/05/19 04:26:53;;;;;;;7.57;4.40;;;14.60;99.90;;;;;;5093228;28;20032;-69
2021/05/19 04:29:19;;;;;;;7.10;4.70;;;14.60;99.90;;;;;;5092263;28;20024;-72
2021/05/19 04:31:44;;;;;;;9.57;4.65;;;14.70;99.90;;;;;;5092175;28;20017;-69
2021/05/19 04:34:10;;;;;;;7.65;4.25;;;14.70;99.90;;;;;;5093711;28;20039;-69
2021/05/19 04:36:36;;;;;;;8.43;4.43;;;14.70;99.90;;;;;;5093410;28;20040;-70
2021/05/19 04:39:04;;;;;;;6.45;4.57;;;14.70;99.90;;;;;;5092165;28;20028;-71
2021/05/19 04:41:30;;;;;;;8.57;4.10;;;14.90;99.90;;;;;;5093400;28;20372;-70
2021/05/19 04:43:56;;;;;;;9.45;4.57;;;15.00;99.90;;;;;;5091979;28;20020;-69
2021/05/19 04:46:22;;;;;;;6.72;4.22;;;15.10;99.90;;;;;;5093186;28;20081;-70
2021/05/19 04:48:49;;;;;;;5.88;3.80;;;15.10;99.90;;;;;;5093454;28;20060;-69
2021/05/19 04:51:15;;;;;;;7.25;4.15;;;15.20;99.90;;;;;;5093229;28;20070;-69
2021/05/19 04:53:41;;;;;;;9.88;4.72;;;15.20;99.90;;;;;;5093224;28;20445;-68
2021/05/19 04:56:07;;;;;;;9.25;4.10;;;15.20;99.90;;;;;;5093181;28;20029;-69
2021/05/19 04:58:33;;;;;;;7.38;4.60;;;15.20;99.90;;;;;;5093725;28;20035;-71
2021/05/19 05:00:59;;;;;;;8.65;4.20;;;15.20;99.90;;;;;;5097657;28;20047;-71
2021/05/19 05:03:24;;;;;;;6.63;4.78;;;15.20;99.90;;;;;;5097164;28;20456;-69
2021/05/19 05:05:51;;;;;;;8.90;4.97;;;15.20;99.90;;;;;;5097245;28;20016;-71
2021/05/19 05:08:17;;;;;;;8.57;4.85;;;15.00;99.90;;;;;;5095704;28;20475;-71
2021/05/19 05:10:43;;;;;;;7.72;5.07;;;14.70;99.90;;;;;;5096990;28;20109;-69
2021/05/19 05:13:09;;;;;;;7.75;4.88;;;14.50;99.90;;;;;;5096800;28;20079;-71
2021/05/19 05:15:35;;;;;;;8.88;5.20;;;14.40;99.90;;;;;;5097214;28;20097;-70
2021/05/19 05:18:00;;;;;;;12.05;4.70;;;14.50;99.90;;;;;;5095875;28;20452;-69
2021/05/19 05:20:26;;;;;;;6.60;4.25;;;14.50;99.90;;;;;;5095609;28;20024;-69
2021/05/19 05:22:52;;;;;;;7.97;4.90;;;14.40;99.90;;;;;;5095438;28;20030;-69
2021/05/19 05:25:20;;;;;;;8.13;5.15;;;14.30;99.90;;;;;;5096786;28;20024;-71
2021/05/19 05:27:48;;;;;;;7.55;4.82;;;14.30;99.90;;;;;;5096673;28;20040;-68
2021/05/19 05:30:16;;;;;;;10.15;4.45;;;14.30;99.90;;;;;;5096707;28;20020;-72
2021/05/19 05:32:42;;;;;;;7.47;4.15;;;14.30;99.90;;;;;;5096680;28;20036;-72
2021/05/19 05:35:11;;;;;;;6.10;3.92;;;14.40;99.90;;;;;;5096778;28;20020;-69
2021/05/19 05:37:37;;;;;;;6.88;4.05;;;14.40;99.90;;;;;;5096694;28;20024;-69
2021/05/19 05:40:05;;;;;;;6.82;4.40;;;14.40;99.90;;;;;;5096588;28;20460;-70
2021/05/19 05:42:31;;;;;;;8.88;4.15;;;14.40;99.90;;;;;;5094460;28;20073;-71
2021/05/19 05:44:57;;;;;;;8.45;4.30;;;14.50;99.90;;;;;;5096205;28;20032;-69
2021/05/19 05:47:23;;;;;;;7.07;4.05;;;14.40;99.90;;;;;;5096382;28;20050;-70
2021/05/19 05:49:50;;;;;;;8.40;4.63;;;14.50;99.90;;;;;;5096035;28;20031;-72
2021/05/19 05:52:16;;;;;;;7.20;5.32;;;14.50;99.90;;;;;;5095093;28;20023;-71
2021/05/19 05:54:42;;;;;;;7.03;5.38;;;14.40;99.90;;;;;;5096393;28;20050;-68
2021/05/19 05:57:08;;;;;;;10.23;5.55;;;14.50;99.90;;;;;;5094936;28;20473;-69
2021/05/19 05:59:34;;;;;;;16.35;9.77;;;14.40;99.90;;;;;;5096285;28;20028;-70
2021/05/19 06:02:00;;;;;;;9.38;5.70;;;14.30;99.90;;;;;;5094774;28;20372;-71
2021/05/19 06:04:26;;;;;;;9.68;6.00;;;14.20;99.90;;;;;;5096127;28;20020;-71
2021/05/19 06:06:52;;;;;;;10.68;7.18;;;14.20;99.90;;;;;;5096281;28;20437;-69
2021/05/19 06:09:18;;;;;;;7.88;5.05;;;14.30;99.90;;;;;;5095911;28;20026;-70
2021/05/19 06:11:44;;;;;;;7.88;5.03;;;14.30;99.90;;;;;;5095755;28;20040;-70
2021/05/19 06:14:10;;;;;;;6.80;5.10;;;14.30;99.90;;;;;;5094697;28;20157;-70
2021/05/19 06:16:35;;;;;;;8.52;5.20;;;14.20;99.90;;;;;;5094650;28;20483;-73
2021/05/19 06:19:02;;;;;;;7.05;5.20;;;14.20;99.90;;;;;;5095984;28;20020;-71
2021/05/19 06:21:28;;;;;;;7.32;5.18;;;14.30;99.90;;;;;;5094411;28;20345;-70
2021/05/19 06:23:54;;;;;;;9.73;6.20;;;14.30;99.90;;;;;;5095877;28;20027;-72
2021/05/19 06:26:20;;;;;;;7.45;5.25;;;14.40;99.90;;;;;;5096628;28;20020;-72
2021/05/19 06:28:46;;;;;;;7.78;5.35;;;14.50;99.90;;;;;;5094266;28;20024;-72
2021/05/19 06:31:12;;;;;;;9.18;5.28;;;14.50;99.90;;;;;;5094402;28;20025;-73
2021/05/19 06:33:38;;;;;;;10.90;6.05;;;14.50;99.90;;;;;;5095700;28;20024;-73
2021/05/19 06:36:04;;;;;;;7.25;5.97;;;14.60;99.90;;;;;;5094196;28;20540;-72
2021/05/19 06:38:30;;;;;;;5.95;5.10;;;14.70;99.90;;;;;;5095602;28;20028;-72
2021/05/19 06:40:56;;;;;;;9.57;5.80;;;14.80;99.90;;;;;;5093873;28;20452;-72
2021/05/19 06:43:21;;;;;;;9.73;6.40;;;14.70;99.90;;;;;;5095487;28;20020;-71
2021/05/19 06:45:47;;;;;;;9.68;5.38;;;14.60;99.90;;;;;;5094034;28;20032;-71
2021/05/19 06:48:13;;;;;;;11.07;6.40;;;14.50;99.90;;;;;;5093649;28;20047;-71
2021/05/19 06:50:39;;;;;;;8.07;5.65;;;14.50;99.90;;;;;;5094036;28;20046;-73
2021/05/19 06:53:05;;;;;;;9.05;5.78;;;14.50;99.90;;;;;;5094008;28;20051;-73
2021/05/19 06:55:31;;;;;;;8.20;6.20;;;14.60;99.90;;;;;;5095289;28;20084;-71
2021/05/19 06:57:56;;;;;;;11.13;6.53;;;14.70;99.90;;;;;;5095250;28;20016;-72
2021/05/19 07:00:23;;;;;;;10.20;6.03;;;14.80;99.90;;;;;;5094931;28;20027;-72
2021/05/19 07:02:49;;;;;;;10.27;6.00;;;15.00;99.90;;;;;;5093784;28;20068;-72
2021/05/19 07:17:46;;;;;;;6.88;5.38;;;15.20;99.90;;;;;;5090012;27;20386;-71
2021/05/19 07:20:12;;;;;;;8.77;5.82;;;16.10;99.90;;;;;;5090108;28;20531;-72
2021/05/19 07:22:40;;;;;;;9.82;5.45;;;16.30;99.90;;;;;;5090186;28;20028;-72
2021/05/19 07:25:07;;;;;;;7.07;5.15;;;16.30;99.90;;;;;;5071894;28;20465;-72
2021/05/19 07:27:33;;;;;;;7.78;4.82;;;16.30;99.90;;;;;;5071659;28;20036;-71
2021/05/19 07:30:00;;;;;;;8.02;5.00;;;16.40;99.90;;;;;;5071957;28;20029;-71
2021/05/19 07:32:26;;;;;;;8.32;5.13;;;16.50;99.90;;;;;;5090136;28;20035;-72
2021/05/19 07:34:52;;;;;;;8.80;4.95;;;16.50;99.90;;;;;;5090004;28;20027;-72
2021/05/19 07:37:18;;;;;;;7.05;4.63;;;16.50;99.90;;;;;;5089964;28;20028;-71
2021/05/19 07:39:44;;;;;;;6.03;3.83;;;16.60;99.90;;;;;;5090212;28;20024;-72
2021/05/19 07:42:16;;;;;;;10.50;5.95;;;16.60;99.90;;;;;;5090070;28;20457;-72
2021/05/19 07:44:43;;;;;;;11.95;5.53;;;16.60;99.90;;;;;;5088554;28;20077;-72
2021/05/19 07:47:09;;;;;;;6.22;3.95;;;16.70;99.90;;;;;;5071310;28;20032;-73
2021/05/19 07:49:35;;;;;;;6.63;4.32;;;16.60;99.90;;;;;;5071165;28;20028;-73
2021/05/19 07:52:01;;;;;;;5.53;3.63;;;16.60;99.90;;;;;;5089618;28;20031;-72
2021/05/19 07:54:29;;;;;;;4.35;3.65;;;16.90;99.90;;;;;;5086479;28;20012;-71
2021/05/19 07:57:09;;;;;;;7.53;4.68;;;16.70;99.90;;;;;;5088310;28;20107;-71
2021/05/19 07:59:35;;;;;;;10.23;5.82;;;16.80;99.90;;;;;;5089105;28;20021;-70
2021/05/19 08:02:08;;;;;;;6.03;4.28;;;16.90;99.90;;;;;;5070844;28;20496;-70
2021/05/19 08:04:36;;;;;;;7.53;4.93;;;17.00;99.90;;;;;;5071166;28;20117;-69
2021/05/19 08:07:06;;;;;;;6.60;4.20;;;17.20;99.90;;;;;;5089051;28;20030;-71
2021/05/19 08:09:32;;;;;;;6.15;4.13;;;17.30;99.90;;;;;;5089372;28;20036;-69
2021/05/19 08:11:59;;;;;;;5.35;3.92;;;17.50;99.90;;;;;;5071099;28;20111;-69
2021/05/19 08:14:32;;;;;;;5.88;3.28;;;17.60;99.90;;;;;;5089269;28;20055;-71
2021/05/19 08:16:58;;;;;;;7.13;4.85;;;17.50;99.90;;;;;;5085364;28;20123;-71
2021/05/19 08:19:24;;;;;;;9.10;4.57;;;17.70;99.90;;;;;;5057628;28;20128;-73
2021/05/19 08:21:50;;;;;;;4.22;3.33;;;18.00;99.90;;;;;;5057686;28;20484;-73
2021/05/19 08:24:16;;;;;;;4.53;2.80;;;18.20;99.90;;;;;;5075287;28;20028;-74
2021/05/19 08:26:42;;;;;;;2.22;1.98;;;18.20;99.90;;;;;;5057388;28;20051;-73
2021/05/19 08:29:08;;;;;;;1.80;1.70;;;18.10;99.90;;;;;;5057503;28;20493;-69
2021/05/19 08:31:34;;;;;;;5.75;3.17;;;18.10;99.90;;;;;;5075485;28;20032;-68
2021/05/19 08:34:00;;;;;;;5.50;2.33;;;18.20;99.90;;;;;;5074923;28;20039;-71
2021/05/19 08:36:26;;;;;;;2.67;2.30;;;18.30;99.90;;;;;;5075324;28;20032;-69
2021/05/19 08:38:55;;;;;;;2.00;1.80;;;18.60;99.90;;;;;;5075071;28;20020;-71
2021/05/19 08:41:21;;;;;;;2.58;1.83;;;18.80;99.90;;;;;;5075184;28;20025;-70
2021/05/19 08:43:47;;;;;;;5.50;3.20;;;19.00;99.90;;;;;;5075084;28;20368;-70
2021/05/19 08:46:13;;;;;;;2.83;2.17;;;19.10;99.90;;;;;;5056556;28;20389;-70
2021/05/19 08:48:41;;;;;;;4.90;3.05;;;19.10;99.90;;;;;;5074785;28;20036;-69
2021/05/19 08:51:07;;;;;;;5.03;2.72;;;18.80;99.90;;;;;;5056933;28;20082;-71
2021/05/19 08:53:33;;;;;;;3.50;2.13;;;18.60;99.90;;;;;;5074673;28;20024;-68
2021/05/19 08:56:06;;;;;;;2.42;2.20;;;18.20;99.90;;;;;;5074920;28;20032;-70
2021/05/19 08:58:32;;;;;;;4.40;2.67;;;17.90;99.90;;;;;;5074932;28;20035;-68
2021/05/19 09:00:58;;;;;;;2.95;2.55;;;17.70;99.90;;;;;;5073450;28;20176;-69
2021/05/19 09:03:24;;;;;;;5.15;3.78;;;17.40;99.90;;;;;;5075108;28;20021;-68
2021/05/19 09:05:50;;;;;;;4.28;3.70;;;17.40;99.90;;;;;;5073951;28;20469;-68
2021/05/19 09:08:20;;;;;;;3.88;3.35;;;17.40;99.90;;;;;;5056445;28;20154;-69
2021/05/19 09:11:01;;;;;;;6.18;4.13;;;17.30;99.90;;;;;;5074687;28;20032;-68
2021/05/19 09:13:37;;;;;;;6.05;3.70;;;17.30;99.90;;;;;;5074410;28;20389;-70
2021/05/19 09:16:04;;;;;;;6.53;3.50;;;17.30;99.90;;;;;;5074130;28;20048;-70
2021/05/19 09:18:57;;;;;;;6.93;4.43;;;17.30;99.90;;;;;;5056538;28;20025;-70
2021/05/19 09:21:33;;;;;;;6.40;3.80;;;17.30;99.90;;;;;;5055765;28;20032;-70
2021/05/19 09:24:02;;;;;;;5.07;3.22;;;17.20;99.90;;;;;;5073804;28;20493;-69
2021/05/19 09:26:28;;;;;;;8.02;4.15;;;17.20;99.90;;;;;;5056197;28;20071;-71
2021/05/19 09:29:14;;;;;;;6.47;4.13;;;17.20;99.90;;;;;;5072710;28;20063;-68
2021/05/19 09:31:53;;;;;;;5.78;3.78;;;17.30;99.90;;;;;;5074071;28;20089;-71
2021/05/19 09:34:28;;;;;;;6.35;4.07;;;17.40;99.90;;;;;;5073908;28;20033;-70
2021/05/19 09:37:24;;;;;;;6.25;5.50;;;17.50;99.90;;;;;;5073757;28;20021;-71
2021/05/19 09:40:00;;;;;;;4.88;3.75;;;17.70;99.90;;;;;;5055606;28;20028;-71
2021/05/19 09:42:40;;;;;;;4.57;3.50;;;17.80;99.90;;;;;;5056054;28;20028;-69
2021/05/19 09:47:56;;;;;;;5.97;4.25;;;18.00;99.90;;;;;;5073522;28;20029;-72
2021/05/19 09:50:24;;;;;;;5.55;3.67;;;18.10;99.90;;;;;;5055815;28;20127;-69
2021/05/19 09:53:13;;;;;;;4.50;3.65;;;18.20;99.90;;;;;;5073767;28;20082;-70
2021/05/19 09:55:41;;;;;;;6.22;3.22;;;18.30;99.90;;;;;;5073667;28;20038;-68
2021/05/19 09:58:08;;;;;;;5.57;3.58;;;18.20;99.90;;;;;;5055606;28;20024;-69
2021/05/19 10:00:35;;;;;;;5.65;3.78;;;18.40;99.90;;;;;;5055700;28;20024;-70
2021/05/19 10:03:02;;;;;;;7.20;3.78;;;18.50;99.90;;;;;;5073627;28;20481;-69
2021/05/19 10:07:55;;;;;;;5.32;3.67;;;19.20;99.90;;;;;;5073154;28;20036;-70
2021/05/19 10:10:26;;;;;;;5.15;3.65;;;19.60;99.90;;;;;;5054265;28;20036;-70
2021/05/19 10:12:53;;;;;;;4.95;4.00;;;19.90;99.90;;;;;;5055457;28;20024;-71
2021/05/19 10:15:21;;;;;;;5.75;4.00;;;20.10;99.90;;;;;;5073358;28;20028;-70
2021/05/19 10:17:51;;;;;;;4.28;3.28;;;20.10;99.90;;;;;;5072966;28;20036;-69
2021/05/19 10:20:25;;;;;;;3.80;3.13;;;19.90;99.10;;;;;;5055192;28;20466;-69
2021/05/19 10:22:52;;;;;;;3.80;2.75;;;19.80;99.90;;;;;;5074026;28;20484;-69
2021/05/19 10:25:39;;;;;;;5.05;3.00;;;20.10;99.30;;;;;;5056403;28;20457;-70
2021/05/19 10:28:12;;;;;;;3.72;2.95;;;20.50;97.80;;;;;;5073526;28;20032;-70
2021/05/19 10:30:39;;;;;;;4.40;3.38;;;20.60;98.40;;;;;;5073120;28;20393;-70
2021/05/19 10:33:06;;;;;;;4.20;3.17;;;20.60;98.50;;;;;;5055334;28;20119;-70
2021/05/19 10:35:35;;;;;;;4.32;2.83;;;20.70;98.10;;;;;;5073239;28;20031;-72
2021/05/19 10:38:23;;;;;;;3.25;2.65;;;20.90;98.00;;;;;;5073135;28;20060;-69
2021/05/19 10:41:00;;;;;;;3.58;3.20;;;21.50;96.30;;;;;;5073007;28;20025;-68
2021/05/19 10:43:44;;;;;;;3.92;3.30;;;21.70;95.90;;;;;;5073119;28;20037;-68
2021/05/19 10:46:13;;;;;;;8.93;3.58;;;21.50;95.80;;;;;;5073179;28;20044;-71
2021/05/19 10:48:39;;;;;;;3.40;3.13;;;21.50;96.50;;;;;;5073022;28;20461;-69
2021/05/19 10:51:41;;;;;;;5.22;3.20;;;21.80;95.90;;;;;;5072787;28;20531;-72
2021/05/19 10:57:20;;;;;;;6.13;3.75;;;;;;;;;;5072784;28;20560;-70
2021/05/19 11:00:12;;;;;;;4.38;3.70;;;21.20;95.60;;;;;;5072977;28;20047;-70
2021/05/19 11:02:54;;;;;;;5.18;3.70;;;21.00;96.60;;;;;;5072471;28;20067;-70
2021/05/19 11:05:34;;;;;;;4.55;3.40;;;20.60;97.20;;;;;;5072675;28;20029;-68
2021/05/19 11:08:12;;;;;;;3.90;2.97;;;20.30;97.80;;;;;;5072891;28;20033;-72
2021/05/19 11:10:47;;;;;;;6.53;3.42;;;20.00;98.50;;;;;;5054908;28;20119;-69
2021/05/19 11:13:15;;;;;;;3.83;3.10;;;19.80;98.20;;;;;;5072850;28;20020;-72
2021/05/19 11:21:13;;;;;;;5.13;3.88;;;20.40;98.60;;;;;;5072840;28;20123;-69
2021/05/19 11:23:39;;;;;;;6.47;3.95;;;20.50;97.90;;;;;;5072775;28;20028;-71
2021/05/19 11:26:13;;;;;;;5.00;3.25;;;20.70;97.80;;;;;;5054488;28;20025;-69
2021/05/19 11:28:40;;;;;;;6.07;3.63;;;21.10;96.30;;;;;;5054725;28;20043;-72
2021/05/19 11:31:14;;;;;;;5.38;3.20;;;21.60;96.40;;;;;;5072511;28;20017;-72
2021/05/19 11:34:03;;;;;;;6.47;3.95;;;21.70;96.40;;;;;;5072540;28;20025;-70
2021/05/19 11:36:31;;;;;;;5.90;4.13;;;;;;;;;;5054605;28;20039;-70
2021/05/19 11:39:00;;;;;;;6.85;4.28;;;22.90;93.60;;;;;;5072535;28;20028;-68
2021/05/19 11:41:25;;;;;;;5.93;4.10;;;22.50;94.80;;;;;;5072518;28;20031;-71
2021/05/19 11:43:51;;;;;;;5.80;4.28;;;22.30;94.70;;;;;;5054470;28;20025;-69
2021/05/19 11:46:17;;;;;;;4.80;3.97;;;21.90;94.70;;;;;;5072303;28;20108;-68
2021/05/19 11:48:49;;;;;;;6.13;4.40;;;21.40;96.20;;;;;;5054463;28;20470;-69
2021/05/19 11:51:15;;;;;;;;;;;20.40;96.10;;;;;;5072974;28;20032;-68
2021/05/19 11:54:01;;;;;;;6.35;4.57;;;20.40;96.90;;;;;;5057322;28;19951;-70
2021/05/19 11:56:47;;;;;;;7.55;4.38;;;19.90;97.80;;;;;;5076229;28;20032;-69
2021/05/19 11:59:17;;;;;;;4.40;4.00;;;19.60;99.00;;;;;;5076004;28;20033;-70
2021/05/19 12:02:00;;;;;;;4.93;4.10;;;19.40;99.90;;;;;;5058057;28;20119;-67
2021/05/19 12:04:27;;;;;;;4.28;3.60;;;19.10;99.90;;;;;;5057970;28;20385;-69
2021/05/19 12:06:54;;;;;;;4.03;3.60;;;18.90;99.90;;;;;;5075865;28;20063;-69
2021/05/19 12:09:22;;;;;;;4.82;3.22;;;18.70;99.90;;;;;;5075923;28;20354;-68
2021/05/19 12:11:49;;;;;;;5.38;3.95;;;18.50;99.90;;;;;;5075956;28;20455;-69
2021/05/19 12:14:17;;;;;;;6.30;4.72;;;18.40;99.90;;;;;;5057898;28;20031;-68
2021/05/19 12:16:47;;;;;;;6.85;5.35;;;18.20;99.90;;;;;;5075708;28;20041;-67
2021/05/19 12:19:18;;;;;;;5.57;3.72;;;18.10;99.90;;;;;;5075768;28;20056;-71
2021/05/19 12:22:06;;;;;;;7.20;4.55;;;18.00;99.90;;;;;;5075890;28;20107;-67
2021/05/19 12:24:33;;;;;;;7.35;4.40;;;17.50;99.90;;;;;;5044768;28;20039;-68
2021/05/19 12:27:00;;;;;;;7.32;4.65;;;17.40;99.90;;;;;;5075542;28;20047;-67
2021/05/19 12:29:49;;;;;;;8.52;4.55;;;17.30;99.90;;;;;;5057569;28;20462;-69
2021/05/19 12:32:19;;;;;;;4.93;4.15;;;17.20;99.90;;;;;;5075863;28;20039;-70
2021/05/19 12:35:07;;;;;;;6.22;4.78;;;17.20;99.90;;;;;;5057564;28;20111;-71
2021/05/19 12:37:54;;;;;;;6.43;4.50;;;17.20;99.90;;;;;;5059557;28;20044;-68
2021/05/19 12:40:23;;;;;;;6.28;4.55;;;17.10;99.90;;;;;;5075287;28;20033;-70
2021/05/19 12:42:55;;;;;;;9.52;4.35;;;17.00;99.90;;;;;;5075084;28;20420;-70
2021/05/19 12:45:30;;;;;;;5.40;4.30;;;17.10;99.90;;;;;;5056933;28;20036;-70
2021/05/19 12:48:07;;;;;;;8.70;4.65;;;17.20;99.90;;;;;;5057274;28;20036;-71
2021/05/19 12:50:59;;;;;;;5.93;4.50;;;17.30;99.90;;;;;;5075089;28;20025;-69
2021/05/19 12:53:41;;;;;;;;;;;17.30;99.90;;;;;;5075573;28;20079;-71
2021/05/19 12:56:15;;;;;;;6.97;4.07;;;17.30;99.90;;;;;;5057039;28;20345;-72
2021/05/19 12:59:11;;;;;;;7.55;4.00;;;17.30;99.90;;;;;;5074901;28;20029;-71
2021/05/19 13:01:47;;;;;;;4.32;3.40;;;17.10;99.90;;;;;;5054718;28;20033;-70
2021/05/19 13:04:15;;;;;;;5.78;3.80;;;17.20;99.90;;;;;;5074802;28;20104;-72
2021/05/19 13:06:41;;;;;;;4.13;3.72;;;17.00;99.90;;;;;;5074907;28;20030;-70
2021/05/19 13:09:18;;;;;;;4.10;3.70;;;16.70;99.90;;;;;;5056854;28;20086;-70
2021/05/19 13:11:56;;;;;;;4.43;3.83;;;16.80;99.90;;;;;;5056846;28;20025;-71
2021/05/19 13:14:38;;;;;;;9.30;3.72;;;16.90;99.90;;;;;;5074788;28;20062;-70
2021/05/19 13:17:08;;;;;;;;;;;16.90;99.90;;;;;;5075203;28;20098;-70
2021/05/19 13:19:36;;;;;;;5.53;2.88;;;16.90;99.90;;;;;;5074711;28;19904;-68
2021/05/19 13:22:02;;;;;;;4.95;3.53;;;16.80;99.90;;;;;;5074564;28;20031;-70
2021/05/19 13:24:34;;;;;;;4.72;3.20;;;16.90;99.90;;;;;;5056480;28;20033;-68
2021/05/19 13:27:02;;;;;;;8.23;3.40;;;16.90;99.90;;;;;;5056767;28;20025;-68
2021/05/19 13:29:28;;;;;;;4.05;3.63;;;17.00;99.90;;;;;;5056619;28;20380;-69
2021/05/19 13:32:03;;;;;;;3.42;2.90;;;17.00;99.90;;;;;;5074414;28;20031;-68
2021/05/19 13:37:01;;;;;;;7.18;4.00;;;16.80;99.90;;;;;;5074318;28;20372;-71
2021/05/19 13:39:28;;;;;;;5.88;4.43;;;16.70;99.90;;;;;;5074507;28;20032;-71
2021/05/19 13:41:59;;;;;;;7.70;4.55;;;16.70;99.90;;;;;;5074516;28;20114;-70
2021/05/19 13:44:26;;;;;;;7.43;4.45;;;16.70;99.90;;;;;;5074222;28;20048;-69